sensor_id;sensor_type;location;lat;lon;timestamp;temperature;humidity
16305;DHT22;8261;47.678;-122.174;2023-06-14T00:00:51;19.80;99.90
16305;DHT22;8261;47.678;-122.174;2023-06-14T00:03:25;19.90;99.90
16305;DHT22;8261;47.678;-122.174;2023-06-14T00:05:57;20.30;99.90
16305;DHT22;8261;47.678;-122.174;2023-06-14T00:08:29;20.60;99.90
16305;DHT22;8261;47.678;-122.174;2023-06-14T00:11:00;19.90;99.90
16305;DHT22;8261;47.678;-122.174;2023-06-14T00:13:33;19.10;99.90
16305;DHT22;8261;47.678;-122.174;2023-06-14T00:16:05;19.10;99.90
16305;DHT22;8261;47.678;-122.174;2023-06-14T00:18:38;19.50;99.90
16305;DHT22;8261;47.678;-122.174;2023-06-14T00:21:09;19.20;99.90
16305;DHT22;8261;47.678;-122.174;2023-06-14T00:23:43;19.00;99.90
16305;DHT22;8261;47.678;-122.174;2023-06-14T00:26:14;18.40;99.90
16305;DHT22;8261;47.678;-122.174;2023-06-14T00:28:47;18.20;99.90
16305;DHT22;8261;47.678;-122.174;2023-06-14T00:31:19;18.20;99.90
16305;DHT22;8261;47.678;-122.174;2023-06-14T00:33:50;18.50;99.90
16305;DHT22;8261;47.678;-122.174;2023-06-14T00:36:21;18.40;99.90
16305;DHT22;8261;47.678;-122.174;2023-06-14T00:38:54;18.20;99.90
16305;DHT22;8261;47.678;-122.174;2023-06-14T00:41:27;18.30;99.90
16305;DHT22;8261;47.678;-122.174;2023-06-14T00:44:05;18.50;99.90
16305;DHT22;8261;47.678;-122.174;2023-06-14T00:46:42;18.40;99.90
16305;DHT22;8261;47.678;-122.174;2023-06-14T00:49:16;18.30;99.90
16305;DHT22;8261;47.678;-122.174;2023-06-14T00:51:51;18.30;99.90
16305;DHT22;8261;47.678;-122.174;2023-06-14T00:54:24;18.20;99.90
16305;DHT22;8261;47.678;-122.174;2023-06-14T00:56:55;18.30;99.90
16305;DHT22;8261;47.678;-122.174;2023-06-14T00:59:29;18.40;99.90
16305;DHT22;8261;47.678;-122.174;2023-06-14T01:02:00;18.70;99.90
16305;DHT22;8261;47.678;-122.174;2023-06-14T01:04:32;18.70;99.90
16305;DHT22;8261;47.678;-122.174;2023-06-14T01:07:09;18.90;99.90
16305;DHT22;8261;47.678;-122.174;2023-06-14T01:09:51;18.80;99.90
16305;DHT22;8261;47.678;-122.174;2023-06-14T01:12:31;18.80;99.90
16305;DHT22;8261;47.678;-122.174;2023-06-14T01:15:08;18.70;99.90
16305;DHT22;8261;47.678;-122.174;2023-06-14T01:17:41;18.70;99.90
16305;DHT22;8261;47.678;-122.174;2023-06-14T01:20:15;18.70;99.90
16305;DHT22;8261;47.678;-122.174;2023-06-14T01:22:53;18.50;99.90
16305;DHT22;8261;47.678;-122.174;2023-06-14T01:25:25;18.40;99.90
16305;DHT22;8261;47.678;-122.174;2023-06-14T01:28:00;18.30;99.90
16305;DHT22;8261;47.678;-122.174;2023-06-14T01:30:32;18.30;99.90
16305;DHT22;8261;47.678;-122.174;2023-06-14T01:33:06;18.30;99.90
16305;DHT22;8261;47.678;-122.174;2023-06-14T01:35:38;18.30;99.90
16305;DHT22;8261;47.678;-122.174;2023-06-14T01:38:13;18.30;99.90
16305;DHT22;8261;47.678;-122.174;2023-06-14T01:40:45;18.30;99.90
16305;DHT22;8261;47.678;-122.174;2023-06-14T01:43:19;18.40;99.90
16305;DHT22;8261;47.678;-122.174;2023-06-14T01:45:51;18.50;99.90
16305;DHT22;8261;47.678;-122.174;2023-06-14T01:48:25;18.50;99.90
16305;DHT22;8261;47.678;-122.174;2023-06-14T01:50:56;18.40;99.90
16305;DHT22;8261;47.678;-122.174;2023-06-14T01:53:29;18.50;99.90
16305;DHT22;8261;47.678;-122.174;2023-06-14T01:56:00;18.30;99.90
16305;DHT22;8261;47.678;-122.174;2023-06-14T01:58:32;18.10;99.90
16305;DHT22;8261;47.678;-122.174;2023-06-14T02:01:05;18.10;99.90
16305;DHT22;8261;47.678;-122.174;2023-06-14T02:03:37;18.20;99.90
16305;DHT22;8261;47.678;-122.174;2023-06-14T02:06:09;18.10;99.90
16305;DHT22;8261;47.678;-122.174;2023-06-14T02:08:43;18.10;99.90
16305;DHT22;8261;47.678;-122.174;2023-06-14T02:11:15;18.00;99.90
16305;DHT22;8261;47.678;-122.174;2023-06-14T02:13:46;18.00;99.90
16305;DHT22;8261;47.678;-122.174;2023-06-14T02:16:17;17.90;99.90
16305;DHT22;8261;47.678;-122.174;2023-06-14T02:18:49;17.80;99.90
16305;DHT22;8261;47.678;-122.174;2023-06-14T02:21:21;17.80;99.90
16305;DHT22;8261;47.678;-122.174;2023-06-14T02:23:54;17.80;99.90
16305;DHT22;8261;47.678;-122.174;2023-06-14T02:26:27;17.80;99.90
16305;DHT22;8261;47.678;-122.174;2023-06-14T02:28:59;17.80;99.90
16305;DHT22;8261;47.678;-122.174;2023-06-14T02:31:31;17.80;99.90
16305;DHT22;8261;47.678;-122.174;2023-06-14T02:34:03;17.70;99.90
16305;DHT22;8261;47.678;-122.174;2023-06-14T02:36:35;17.70;99.90
16305;DHT22;8261;47.678;-122.174;2023-06-14T02:39:12;17.70;99.90
16305;DHT22;8261;47.678;-122.174;2023-06-14T02:41:44;17.50;99.90
16305;DHT22;8261;47.678;-122.174;2023-06-14T02:44:18;17.40;99.90
16305;DHT22;8261;47.678;-122.174;2023-06-14T02:46:49;17.40;99.90
16305;DHT22;8261;47.678;-122.174;2023-06-14T02:49:21;17.30;99.90
16305;DHT22;8261;47.678;-122.174;2023-06-14T02:51:53;17.30;99.90
16305;DHT22;8261;47.678;-122.174;2023-06-14T02:54:26;17.30;99.90
16305;DHT22;8261;47.678;-122.174;2023-06-14T02:56:57;17.30;99.90
16305;DHT22;8261;47.678;-122.174;2023-06-14T02:59:28;17.20;99.90
16305;DHT22;8261;47.678;-122.174;2023-06-14T03:02:00;17.10;99.90
16305;DHT22;8261;47.678;-122.174;2023-06-14T03:04:32;17.20;99.90
16305;DHT22;8261;47.678;-122.174;2023-06-14T03:07:07;17.10;99.90
16305;DHT22;8261;47.678;-122.174;2023-06-14T03:09:59;17.10;99.90
16305;DHT22;8261;47.678;-122.174;2023-06-14T03:12:32;17.00;99.90
16305;DHT22;8261;47.678;-122.174;2023-06-14T03:15:03;17.00;99.90
16305;DHT22;8261;47.678;-122.174;2023-06-14T03:17:35;16.90;99.90
16305;DHT22;8261;47.678;-122.174;2023-06-14T03:20:08;16.90;99.90
16305;DHT22;8261;47.678;-122.174;2023-06-14T03:22:39;16.80;99.90
16305;DHT22;8261;47.678;-122.174;2023-06-14T03:25:12;16.80;99.90
16305;DHT22;8261;47.678;-122.174;2023-06-14T03:27:43;16.70;99.90
16305;DHT22;8261;47.678;-122.174;2023-06-14T03:30:15;16.60;99.90
16305;DHT22;8261;47.678;-122.174;2023-06-14T03:32:46;16.60;99.90
16305;DHT22;8261;47.678;-122.174;2023-06-14T03:35:18;16.50;99.90
16305;DHT22;8261;47.678;-122.174;2023-06-14T03:37:49;16.40;99.90
16305;DHT22;8261;47.678;-122.174;2023-06-14T03:40:22;16.40;99.90
16305;DHT22;8261;47.678;-122.174;2023-06-14T03:42:55;16.40;99.90
16305;DHT22;8261;47.678;-122.174;2023-06-14T03:45:27;16.40;99.90
16305;DHT22;8261;47.678;-122.174;2023-06-14T03:47:59;16.40;99.90
16305;DHT22;8261;47.678;-122.174;2023-06-14T03:50:32;16.30;99.90
16305;DHT22;8261;47.678;-122.174;2023-06-14T03:53:06;16.30;99.90
16305;DHT22;8261;47.678;-122.174;2023-06-14T03:55:39;16.20;99.90
16305;DHT22;8261;47.678;-122.174;2023-06-14T03:58:14;16.30;99.90
16305;DHT22;8261;47.678;-122.174;2023-06-14T04:00:46;16.30;99.90
16305;DHT22;8261;47.678;-122.174;2023-06-14T04:03:17;16.20;99.90
16305;DHT22;8261;47.678;-122.174;2023-06-14T04:05:54;16.10;99.90
16305;DHT22;8261;47.678;-122.174;2023-06-14T04:08:25;15.90;99.90
16305;DHT22;8261;47.678;-122.174;2023-06-14T04:11:04;15.80;99.90
16305;DHT22;8261;47.678;-122.174;2023-06-14T04:13:36;15.80;99.90
16305;DHT22;8261;47.678;-122.174;2023-06-14T04:16:08;15.80;99.90
16305;DHT22;8261;47.678;-122.174;2023-06-14T04:18:39;15.90;99.90
16305;DHT22;8261;47.678;-122.174;2023-06-14T04:21:11;15.90;99.90
16305;DHT22;8261;47.678;-122.174;2023-06-14T04:23:42;16.00;99.90
16305;DHT22;8261;47.678;-122.174;2023-06-14T04:26:18;15.90;99.90
16305;DHT22;8261;47.678;-122.174;2023-06-14T04:28:52;15.80;99.90
16305;DHT22;8261;47.678;-122.174;2023-06-14T04:31:25;15.70;99.90
16305;DHT22;8261;47.678;-122.174;2023-06-14T04:33:58;15.80;99.90
16305;DHT22;8261;47.678;-122.174;2023-06-14T04:36:29;15.70;99.90
16305;DHT22;8261;47.678;-122.174;2023-06-14T04:39:00;15.60;99.90
16305;DHT22;8261;47.678;-122.174;2023-06-14T04:41:37;15.50;99.90
16305;DHT22;8261;47.678;-122.174;2023-06-14T04:44:08;15.40;99.90
16305;DHT22;8261;47.678;-122.174;2023-06-14T04:46:40;15.30;99.90
16305;DHT22;8261;47.678;-122.174;2023-06-14T04:49:15;15.20;99.90
16305;DHT22;8261;47.678;-122.174;2023-06-14T04:51:47;15.20;99.90
16305;DHT22;8261;47.678;-122.174;2023-06-14T04:54:19;15.20;99.90
16305;DHT22;8261;47.678;-122.174;2023-06-14T04:56:54;15.20;99.90
16305;DHT22;8261;47.678;-122.174;2023-06-14T04:59:25;15.10;99.90
16305;DHT22;8261;47.678;-122.174;2023-06-14T05:01:58;15.10;99.90
16305;DHT22;8261;47.678;-122.174;2023-06-14T05:04:31;15.00;99.90
16305;DHT22;8261;47.678;-122.174;2023-06-14T05:07:03;15.00;99.90
16305;DHT22;8261;47.678;-122.174;2023-06-14T05:09:35;15.00;99.90
16305;DHT22;8261;47.678;-122.174;2023-06-14T05:12:10;14.90;99.90
16305;DHT22;8261;47.678;-122.174;2023-06-14T05:14:41;14.70;99.90
16305;DHT22;8261;47.678;-122.174;2023-06-14T05:17:12;14.50;99.90
16305;DHT22;8261;47.678;-122.174;2023-06-14T05:19:49;14.50;99.90
16305;DHT22;8261;47.678;-122.174;2023-06-14T05:22:21;14.50;99.90
16305;DHT22;8261;47.678;-122.174;2023-06-14T05:24:52;14.50;99.90
16305;DHT22;8261;47.678;-122.174;2023-06-14T05:27:26;14.40;99.90
16305;DHT22;8261;47.678;-122.174;2023-06-14T05:29:59;14.40;99.90
16305;DHT22;8261;47.678;-122.174;2023-06-14T05:32:30;14.30;99.90
16305;DHT22;8261;47.678;-122.174;2023-06-14T05:35:02;14.30;99.90
16305;DHT22;8261;47.678;-122.174;2023-06-14T05:37:37;14.10;99.90
16305;DHT22;8261;47.678;-122.174;2023-06-14T05:40:12;14.00;99.90
16305;DHT22;8261;47.678;-122.174;2023-06-14T05:42:50;14.00;99.90
16305;DHT22;8261;47.678;-122.174;2023-06-14T05:45:26;14.00;99.90
16305;DHT22;8261;47.678;-122.174;2023-06-14T05:48:01;13.90;99.90
16305;DHT22;8261;47.678;-122.174;2023-06-14T05:50:33;13.90;99.90
16305;DHT22;8261;47.678;-122.174;2023-06-14T05:53:08;13.80;99.90
16305;DHT22;8261;47.678;-122.174;2023-06-14T05:55:40;13.80;99.90
16305;DHT22;8261;47.678;-122.174;2023-06-14T05:58:17;13.80;99.90
16305;DHT22;8261;47.678;-122.174;2023-06-14T06:00:48;13.80;99.90
16305;DHT22;8261;47.678;-122.174;2023-06-14T06:03:22;13.70;99.90
16305;DHT22;8261;47.678;-122.174;2023-06-14T06:05:54;13.70;99.90
16305;DHT22;8261;47.678;-122.174;2023-06-14T06:08:27;13.70;99.90
16305;DHT22;8261;47.678;-122.174;2023-06-14T06:11:07;13.60;99.90
16305;DHT22;8261;47.678;-122.174;2023-06-14T06:13:45;13.60;99.90
16305;DHT22;8261;47.678;-122.174;2023-06-14T06:16:17;13.50;99.90
16305;DHT22;8261;47.678;-122.174;2023-06-14T06:18:50;13.40;99.90
16305;DHT22;8261;47.678;-122.174;2023-06-14T06:21:23;13.30;99.90
16305;DHT22;8261;47.678;-122.174;2023-06-14T06:23:57;13.30;99.90
16305;DHT22;8261;47.678;-122.174;2023-06-14T06:26:33;13.30;99.90
16305;DHT22;8261;47.678;-122.174;2023-06-14T06:29:06;13.20;99.90
16305;DHT22;8261;47.678;-122.174;2023-06-14T06:31:39;13.20;99.90
16305;DHT22;8261;47.678;-122.174;2023-06-14T06:34:11;13.30;99.90
16305;DHT22;8261;47.678;-122.174;2023-06-14T06:36:42;13.30;99.90
16305;DHT22;8261;47.678;-122.174;2023-06-14T06:39:14;13.20;99.90
16305;DHT22;8261;47.678;-122.174;2023-06-14T06:41:46;13.20;99.90
16305;DHT22;8261;47.678;-122.174;2023-06-14T06:44:23;13.10;99.90
16305;DHT22;8261;47.678;-122.174;2023-06-14T06:46:54;13.10;99.90
16305;DHT22;8261;47.678;-122.174;2023-06-14T06:49:26;13.10;99.90
16305;DHT22;8261;47.678;-122.174;2023-06-14T06:52:02;13.10;99.90
16305;DHT22;8261;47.678;-122.174;2023-06-14T06:54:35;13.20;99.90
16305;DHT22;8261;47.678;-122.174;2023-06-14T06:57:06;13.10;99.90
16305;DHT22;8261;47.678;-122.174;2023-06-14T06:59:43;13.00;99.90
16305;DHT22;8261;47.678;-122.174;2023-06-14T07:02:15;13.00;99.90
16305;DHT22;8261;47.678;-122.174;2023-06-14T07:04:47;12.90;99.90
16305;DHT22;8261;47.678;-122.174;2023-06-14T07:07:20;12.70;99.90
16305;DHT22;8261;47.678;-122.174;2023-06-14T07:09:56;12.70;99.90
16305;DHT22;8261;47.678;-122.174;2023-06-14T07:12:30;12.70;99.90
16305;DHT22;8261;47.678;-122.174;2023-06-14T07:15:11;12.60;99.90
16305;DHT22;8261;47.678;-122.174;2023-06-14T07:17:47;12.60;99.90
16305;DHT22;8261;47.678;-122.174;2023-06-14T07:20:19;12.40;99.90
16305;DHT22;8261;47.678;-122.174;2023-06-14T07:22:54;12.30;99.90
16305;DHT22;8261;47.678;-122.174;2023-06-14T07:25:26;12.30;99.90
16305;DHT22;8261;47.678;-122.174;2023-06-14T07:27:58;12.30;99.90
16305;DHT22;8261;47.678;-122.174;2023-06-14T07:30:31;12.30;99.90
16305;DHT22;8261;47.678;-122.174;2023-06-14T07:33:02;12.30;99.90
16305;DHT22;8261;47.678;-122.174;2023-06-14T07:35:34;12.30;99.90
16305;DHT22;8261;47.678;-122.174;2023-06-14T07:38:09;12.20;99.90
16305;DHT22;8261;47.678;-122.174;2023-06-14T07:40:44;12.10;99.90
16305;DHT22;8261;47.678;-122.174;2023-06-14T07:43:18;12.10;99.90
16305;DHT22;8261;47.678;-122.174;2023-06-14T07:45:53;12.00;99.90
16305;DHT22;8261;47.678;-122.174;2023-06-14T07:48:34;11.90;99.90
16305;DHT22;8261;47.678;-122.174;2023-06-14T07:51:07;11.90;99.90
16305;DHT22;8261;47.678;-122.174;2023-06-14T07:53:39;11.70;99.90
16305;DHT22;8261;47.678;-122.174;2023-06-14T07:56:12;11.70;99.90
16305;DHT22;8261;47.678;-122.174;2023-06-14T07:58:43;11.60;99.90
16305;DHT22;8261;47.678;-122.174;2023-06-14T08:01:17;11.60;99.90
16305;DHT22;8261;47.678;-122.174;2023-06-14T08:03:51;11.60;99.90
16305;DHT22;8261;47.678;-122.174;2023-06-14T08:06:22;11.50;99.90
16305;DHT22;8261;47.678;-122.174;2023-06-14T08:08:53;11.50;99.90
16305;DHT22;8261;47.678;-122.174;2023-06-14T08:11:26;11.50;99.90
16305;DHT22;8261;47.678;-122.174;2023-06-14T08:14:01;11.40;99.90
16305;DHT22;8261;47.678;-122.174;2023-06-14T08:16:35;11.40;99.90
16305;DHT22;8261;47.678;-122.174;2023-06-14T08:19:07;11.40;99.90
16305;DHT22;8261;47.678;-122.174;2023-06-14T08:21:39;11.40;99.90
16305;DHT22;8261;47.678;-122.174;2023-06-14T08:24:11;11.30;99.90
16305;DHT22;8261;47.678;-122.174;2023-06-14T08:26:43;11.20;99.90
16305;DHT22;8261;47.678;-122.174;2023-06-14T08:29:14;11.30;99.90
16305;DHT22;8261;47.678;-122.174;2023-06-14T08:31:48;11.20;99.90
16305;DHT22;8261;47.678;-122.174;2023-06-14T08:34:23;11.30;99.90
16305;DHT22;8261;47.678;-122.174;2023-06-14T08:36:56;11.20;99.90
16305;DHT22;8261;47.678;-122.174;2023-06-14T08:39:29;11.20;99.90
16305;DHT22;8261;47.678;-122.174;2023-06-14T08:42:03;11.10;99.90
16305;DHT22;8261;47.678;-122.174;2023-06-14T08:44:47;11.10;99.90
16305;DHT22;8261;47.678;-122.174;2023-06-14T08:47:21;11.20;99.90
16305;DHT22;8261;47.678;-122.174;2023-06-14T08:49:53;11.20;99.90
16305;DHT22;8261;47.678;-122.174;2023-06-14T08:52:28;11.20;99.90
16305;DHT22;8261;47.678;-122.174;2023-06-14T08:55:03;11.20;99.90
16305;DHT22;8261;47.678;-122.174;2023-06-14T08:57:37;11.30;99.90
16305;DHT22;8261;47.678;-122.174;2023-06-14T09:00:12;11.20;99.90
16305;DHT22;8261;47.678;-122.174;2023-06-14T09:02:45;11.20;99.90
16305;DHT22;8261;47.678;-122.174;2023-06-14T09:05:17;11.20;99.90
16305;DHT22;8261;47.678;-122.174;2023-06-14T09:07:49;11.30;99.90
16305;DHT22;8261;47.678;-122.174;2023-06-14T09:10:24;11.20;99.90
16305;DHT22;8261;47.678;-122.174;2023-06-14T09:12:58;11.20;99.90
16305;DHT22;8261;47.678;-122.174;2023-06-14T09:15:32;11.20;99.90
16305;DHT22;8261;47.678;-122.174;2023-06-14T09:18:05;11.20;99.90
16305;DHT22;8261;47.678;-122.174;2023-06-14T09:20:37;11.20;99.90
16305;DHT22;8261;47.678;-122.174;2023-06-14T09:23:10;11.20;99.90
16305;DHT22;8261;47.678;-122.174;2023-06-14T09:25:45;11.20;99.90
16305;DHT22;8261;47.678;-122.174;2023-06-14T09:28:18;11.20;99.90
16305;DHT22;8261;47.678;-122.174;2023-06-14T09:30:51;11.20;99.90
16305;DHT22;8261;47.678;-122.174;2023-06-14T09:33:26;11.10;99.90
16305;DHT22;8261;47.678;-122.174;2023-06-14T09:35:57;11.20;99.90
16305;DHT22;8261;47.678;-122.174;2023-06-14T09:38:29;11.20;99.90
16305;DHT22;8261;47.678;-122.174;2023-06-14T09:41:06;11.10;99.90
16305;DHT22;8261;47.678;-122.174;2023-06-14T09:43:38;11.20;99.90
16305;DHT22;8261;47.678;-122.174;2023-06-14T09:46:12;11.20;99.90
16305;DHT22;8261;47.678;-122.174;2023-06-14T09:48:47;11.20;99.90
16305;DHT22;8261;47.678;-122.174;2023-06-14T09:51:20;11.20;99.90
16305;DHT22;8261;47.678;-122.174;2023-06-14T09:53:58;11.20;99.90
16305;DHT22;8261;47.678;-122.174;2023-06-14T09:56:37;11.20;99.90
16305;DHT22;8261;47.678;-122.174;2023-06-14T09:59:13;11.20;99.90
16305;DHT22;8261;47.678;-122.174;2023-06-14T10:01:47;11.20;99.90
16305;DHT22;8261;47.678;-122.174;2023-06-14T10:04:22;11.30;99.90
16305;DHT22;8261;47.678;-122.174;2023-06-14T10:06:54;11.30;99.90
16305;DHT22;8261;47.678;-122.174;2023-06-14T10:09:26;11.30;99.90
16305;DHT22;8261;47.678;-122.174;2023-06-14T10:12:00;11.30;99.90
16305;DHT22;8261;47.678;-122.174;2023-06-14T10:14:33;11.30;99.90
16305;DHT22;8261;47.678;-122.174;2023-06-14T10:17:08;11.30;99.90
16305;DHT22;8261;47.678;-122.174;2023-06-14T10:19:48;11.30;99.90
16305;DHT22;8261;47.678;-122.174;2023-06-14T10:22:29;11.40;99.90
16305;DHT22;8261;47.678;-122.174;2023-06-14T10:25:07;11.40;99.90
16305;DHT22;8261;47.678;-122.174;2023-06-14T10:27:45;11.50;99.90
16305;DHT22;8261;47.678;-122.174;2023-06-14T10:30:16;11.40;99.90
16305;DHT22;8261;47.678;-122.174;2023-06-14T10:33:07;11.40;99.90
16305;DHT22;8261;47.678;-122.174;2023-06-14T10:35:42;11.30;99.90
16305;DHT22;8261;47.678;-122.174;2023-06-14T10:38:14;11.30;99.90
16305;DHT22;8261;47.678;-122.174;2023-06-14T10:40:52;11.40;99.90
16305;DHT22;8261;47.678;-122.174;2023-06-14T10:43:25;11.30;99.90
16305;DHT22;8261;47.678;-122.174;2023-06-14T10:46:15;11.30;99.90
16305;DHT22;8261;47.678;-122.174;2023-06-14T10:48:46;11.50;99.90
16305;DHT22;8261;47.678;-122.174;2023-06-14T10:51:20;11.40;99.90
16305;DHT22;8261;47.678;-122.174;2023-06-14T10:53:51;11.30;99.90
16305;DHT22;8261;47.678;-122.174;2023-06-14T10:56:30;11.40;99.90
16305;DHT22;8261;47.678;-122.174;2023-06-14T10:59:03;11.40;99.90
16305;DHT22;8261;47.678;-122.174;2023-06-14T11:01:38;11.30;99.90
16305;DHT22;8261;47.678;-122.174;2023-06-14T11:04:12;11.30;99.90
16305;DHT22;8261;47.678;-122.174;2023-06-14T11:06:51;11.30;99.90
16305;DHT22;8261;47.678;-122.174;2023-06-14T11:09:45;11.30;99.90
16305;DHT22;8261;47.678;-122.174;2023-06-14T11:12:23;11.20;99.90
16305;DHT22;8261;47.678;-122.174;2023-06-14T11:14:56;11.30;99.90
16305;DHT22;8261;47.678;-122.174;2023-06-14T11:17:27;11.30;99.90
16305;DHT22;8261;47.678;-122.174;2023-06-14T11:20:08;11.20;99.90
16305;DHT22;8261;47.678;-122.174;2023-06-14T11:22:52;11.20;99.90
16305;DHT22;8261;47.678;-122.174;2023-06-14T11:25:23;11.20;99.90
16305;DHT22;8261;47.678;-122.174;2023-06-14T11:27:56;11.30;99.90
16305;DHT22;8261;47.678;-122.174;2023-06-14T11:30:27;11.30;99.90
16305;DHT22;8261;47.678;-122.174;2023-06-14T11:32:58;11.30;99.90
16305;DHT22;8261;47.678;-122.174;2023-06-14T11:35:30;11.30;99.90
16305;DHT22;8261;47.678;-122.174;2023-06-14T11:38:04;11.20;99.90
16305;DHT22;8261;47.678;-122.174;2023-06-14T11:40:38;11.20;99.90
16305;DHT22;8261;47.678;-122.174;2023-06-14T11:43:09;11.20;99.90
16305;DHT22;8261;47.678;-122.174;2023-06-14T11:45:42;11.20;99.90
16305;DHT22;8261;47.678;-122.174;2023-06-14T11:48:37;11.20;99.90
16305;DHT22;8261;47.678;-122.174;2023-06-14T11:51:08;11.20;99.90
16305;DHT22;8261;47.678;-122.174;2023-06-14T11:53:43;11.20;99.90
16305;DHT22;8261;47.678;-122.174;2023-06-14T11:56:14;11.20;99.90
16305;DHT22;8261;47.678;-122.174;2023-06-14T11:58:47;11.30;99.90
16305;DHT22;8261;47.678;-122.174;2023-06-14T12:01:19;11.20;99.90
16305;DHT22;8261;47.678;-122.174;2023-06-14T12:03:51;11.20;99.90
16305;DHT22;8261;47.678;-122.174;2023-06-14T12:06:28;11.20;99.90
16305;DHT22;8261;47.678;-122.174;2023-06-14T12:09:07;11.30;99.90
16305;DHT22;8261;47.678;-122.174;2023-06-14T12:11:42;11.20;99.90
16305;DHT22;8261;47.678;-122.174;2023-06-14T12:14:14;11.30;99.90
16305;DHT22;8261;47.678;-122.174;2023-06-14T12:16:47;11.30;99.90
16305;DHT22;8261;47.678;-122.174;2023-06-14T12:19:18;11.40;99.90
16305;DHT22;8261;47.678;-122.174;2023-06-14T12:21:50;11.30;99.90
16305;DHT22;8261;47.678;-122.174;2023-06-14T12:24:28;11.30;99.90
16305;DHT22;8261;47.678;-122.174;2023-06-14T12:27:00;11.30;99.90
16305;DHT22;8261;47.678;-122.174;2023-06-14T12:29:32;11.30;99.90
16305;DHT22;8261;47.678;-122.174;2023-06-14T12:32:05;11.30;99.90
16305;DHT22;8261;47.678;-122.174;2023-06-14T12:34:37;11.30;99.90
16305;DHT22;8261;47.678;-122.174;2023-06-14T12:37:09;11.40;99.90
16305;DHT22;8261;47.678;-122.174;2023-06-14T12:39:43;11.40;99.90
16305;DHT22;8261;47.678;-122.174;2023-06-14T12:42:15;11.30;99.90
16305;DHT22;8261;47.678;-122.174;2023-06-14T12:44:47;11.40;99.90
16305;DHT22;8261;47.678;-122.174;2023-06-14T12:47:19;11.40;99.90
16305;DHT22;8261;47.678;-122.174;2023-06-14T12:49:51;11.50;99.90
16305;DHT22;8261;47.678;-122.174;2023-06-14T12:52:22;11.40;99.90
16305;DHT22;8261;47.678;-122.174;2023-06-14T12:54:56;11.40;99.90
16305;DHT22;8261;47.678;-122.174;2023-06-14T12:57:27;11.40;99.90
16305;DHT22;8261;47.678;-122.174;2023-06-14T13:00:01;11.50;99.90
16305;DHT22;8261;47.678;-122.174;2023-06-14T13:02:34;11.50;99.90
16305;DHT22;8261;47.678;-122.174;2023-06-14T13:05:06;11.60;99.90
16305;DHT22;8261;47.678;-122.174;2023-06-14T13:07:38;11.50;99.90
16305;DHT22;8261;47.678;-122.174;2023-06-14T13:10:15;11.50;99.90
16305;DHT22;8261;47.678;-122.174;2023-06-14T13:12:47;11.50;99.90
16305;DHT22;8261;47.678;-122.174;2023-06-14T13:15:18;11.40;99.90
16305;DHT22;8261;47.678;-122.174;2023-06-14T13:17:50;11.40;99.90
16305;DHT22;8261;47.678;-122.174;2023-06-14T13:20:22;11.40;99.90
16305;DHT22;8261;47.678;-122.174;2023-06-14T13:22:53;11.40;99.90
16305;DHT22;8261;47.678;-122.174;2023-06-14T13:25:27;11.40;99.90
16305;DHT22;8261;47.678;-122.174;2023-06-14T13:27:58;11.40;99.90
16305;DHT22;8261;47.678;-122.174;2023-06-14T13:30:30;11.40;99.90
16305;DHT22;8261;47.678;-122.174;2023-06-14T13:33:01;11.40;99.90
16305;DHT22;8261;47.678;-122.174;2023-06-14T13:35:35;11.40;99.90
16305;DHT22;8261;47.678;-122.174;2023-06-14T13:38:09;11.50;99.90
16305;DHT22;8261;47.678;-122.174;2023-06-14T13:40:44;11.50;99.90
16305;DHT22;8261;47.678;-122.174;2023-06-14T13:43:15;11.50;99.90
16305;DHT22;8261;47.678;-122.174;2023-06-14T13:45:46;11.50;99.90
16305;DHT22;8261;47.678;-122.174;2023-06-14T13:48:18;11.50;99.90
16305;DHT22;8261;47.678;-122.174;2023-06-14T13:50:50;11.50;99.90
16305;DHT22;8261;47.678;-122.174;2023-06-14T13:53:21;11.60;99.90
16305;DHT22;8261;47.678;-122.174;2023-06-14T13:55:55;11.60;99.90
16305;DHT22;8261;47.678;-122.174;2023-06-14T13:58:27;11.60;99.90
16305;DHT22;8261;47.678;-122.174;2023-06-14T14:00:59;11.50;99.90
16305;DHT22;8261;47.678;-122.174;2023-06-14T14:03:31;11.60;99.90
16305;DHT22;8261;47.678;-122.174;2023-06-14T14:06:04;11.60;99.90
16305;DHT22;8261;47.678;-122.174;2023-06-14T14:08:37;11.70;99.90
16305;DHT22;8261;47.678;-122.174;2023-06-14T14:11:10;11.80;99.90
16305;DHT22;8261;47.678;-122.174;2023-06-14T14:13:42;11.60;99.90
16305;DHT22;8261;47.678;-122.174;2023-06-14T14:16:14;11.60;99.90
16305;DHT22;8261;47.678;-122.174;2023-06-14T14:18:47;11.70;99.90
16305;DHT22;8261;47.678;-122.174;2023-06-14T14:21:19;11.70;99.90
16305;DHT22;8261;47.678;-122.174;2023-06-14T14:23:52;11.80;99.90
16305;DHT22;8261;47.678;-122.174;2023-06-14T14:26:31;11.80;99.90
16305;DHT22;8261;47.678;-122.174;2023-06-14T14:29:06;11.80;99.90
16305;DHT22;8261;47.678;-122.174;2023-06-14T14:31:38;11.80;99.90
16305;DHT22;8261;47.678;-122.174;2023-06-14T14:34:11;11.90;99.90
16305;DHT22;8261;47.678;-122.174;2023-06-14T14:36:45;11.90;99.90
16305;DHT22;8261;47.678;-122.174;2023-06-14T14:39:17;12.00;99.90
16305;DHT22;8261;47.678;-122.174;2023-06-14T14:41:50;12.00;99.90
16305;DHT22;8261;47.678;-122.174;2023-06-14T14:44:21;12.10;99.90
16305;DHT22;8261;47.678;-122.174;2023-06-14T14:46:53;12.10;99.90
16305;DHT22;8261;47.678;-122.174;2023-06-14T14:49:24;12.10;99.90
16305;DHT22;8261;47.678;-122.174;2023-06-14T14:51:57;12.00;99.90
16305;DHT22;8261;47.678;-122.174;2023-06-14T14:54:46;12.00;99.90
16305;DHT22;8261;47.678;-122.174;2023-06-14T14:57:22;12.10;99.90
16305;DHT22;8261;47.678;-122.174;2023-06-14T14:59:53;12.10;99.90
16305;DHT22;8261;47.678;-122.174;2023-06-14T15:02:25;12.20;99.90
16305;DHT22;8261;47.678;-122.174;2023-06-14T15:04:57;12.10;99.90
16305;DHT22;8261;47.678;-122.174;2023-06-14T15:07:31;12.20;99.90
16305;DHT22;8261;47.678;-122.174;2023-06-14T15:10:07;12.30;99.90
16305;DHT22;8261;47.678;-122.174;2023-06-14T15:12:41;12.20;99.90
16305;DHT22;8261;47.678;-122.174;2023-06-14T15:15:15;12.20;99.90
16305;DHT22;8261;47.678;-122.174;2023-06-14T15:17:47;12.20;99.90
16305;DHT22;8261;47.678;-122.174;2023-06-14T15:20:20;12.20;99.90
16305;DHT22;8261;47.678;-122.174;2023-06-14T15:22:52;12.20;99.90
16305;DHT22;8261;47.678;-122.174;2023-06-14T15:25:28;12.20;99.90
16305;DHT22;8261;47.678;-122.174;2023-06-14T15:28:04;12.20;99.90
16305;DHT22;8261;47.678;-122.174;2023-06-14T15:30:41;12.20;99.90
16305;DHT22;8261;47.678;-122.174;2023-06-14T15:33:12;12.10;99.90
16305;DHT22;8261;47.678;-122.174;2023-06-14T15:35:44;12.20;99.90
16305;DHT22;8261;47.678;-122.174;2023-06-14T15:38:17;12.40;99.90
16305;DHT22;8261;47.678;-122.174;2023-06-14T15:40:50;12.50;99.90